createdAt,value
2019-05-23T00:01:09.957Z,6.50
2019-05-23T00:03:51.470Z,4.33
2019-05-23T00:06:21.815Z,4.70
2019-05-23T00:08:50.716Z,3.30
2019-05-23T00:11:40.367Z,4.97
2019-05-23T00:14:22.420Z,5.23
2019-05-23T00:16:52.705Z,7.83
2019-05-23T00:19:21.764Z,6.27
2019-05-23T00:21:51.818Z,7.40
2019-05-23T00:24:21.125Z,14.30
2019-05-23T00:26:51.239Z,6.13
2019-05-23T00:29:21.360Z,7.77
2019-05-23T00:31:57.394Z,5.93
2019-05-23T00:34:26.544Z,7.70
2019-05-23T00:36:55.615Z,9.20
2019-05-23T00:39:25.153Z,4.73
2019-05-23T00:41:55.136Z,6.83
2019-05-23T00:44:24.957Z,6.20
2019-05-23T00:46:54.045Z,10.50
2019-05-23T00:49:22.755Z,6.73
2019-05-23T00:51:51.448Z,10.73
2019-05-23T00:54:21.328Z,4.00
2019-05-23T00:56:50.241Z,5.17
2019-05-23T00:59:26.991Z,8.43
2019-05-23T01:01:50.590Z,7.87
2019-05-23T01:04:20.889Z,7.30
2019-05-23T01:06:49.656Z,8.10
2019-05-23T01:09:19.475Z,7.47
2019-05-23T01:11:49.303Z,7.27
2019-05-23T01:14:18.812Z,10.50
2019-05-23T01:16:48.079Z,9.57
2019-05-23T01:19:17.244Z,9.07
2019-05-23T01:22:01.886Z,10.63
2019-05-23T01:24:36.731Z,11.03
2019-05-23T01:27:06.033Z,8.73
2019-05-23T01:29:43.104Z,6.30
2019-05-23T01:32:30.377Z,10.67
2019-05-23T01:34:59.748Z,7.57
2019-05-23T01:37:28.699Z,9.60
2019-05-23T01:39:57.406Z,9.00
2019-05-23T01:42:27.098Z,7.70
2019-05-23T01:44:57.434Z,10.00
2019-05-23T01:47:27.464Z,8.40
2019-05-23T01:49:56.739Z,7.17
2019-05-23T01:52:25.357Z,13.60
2019-05-23T01:54:55.142Z,8.03
2019-05-23T01:57:23.857Z,9.63
2019-05-23T02:00:08.086Z,9.07
2019-05-23T02:02:24.479Z,7.97
2019-05-23T02:04:53.475Z,11.37
2019-05-23T02:07:22.476Z,7.70
2019-05-23T02:09:52.499Z,11.07
2019-05-23T02:12:21.505Z,6.67
2019-05-23T02:14:52.422Z,10.77
2019-05-23T02:17:22.709Z,10.27
2019-05-23T02:19:51.895Z,14.70
2019-05-23T02:22:21.547Z,9.77
2019-05-23T02:24:51.465Z,10.97
2019-05-23T02:27:21.276Z,10.43
2019-05-23T02:29:50.377Z,11.37
2019-05-23T02:32:21.009Z,8.17
2019-05-23T02:34:50.821Z,10.47
2019-05-23T02:37:37.835Z,11.27
2019-05-23T02:40:17.369Z,11.37
2019-05-23T02:42:51.190Z,10.43
2019-05-23T02:45:24.016Z,11.93
2019-05-23T02:47:54.783Z,10.30
2019-05-23T02:50:29.622Z,11.10
2019-05-23T02:53:00.262Z,9.80
2019-05-23T02:55:37.198Z,9.80
2019-05-23T02:58:22.048Z,13.83
2019-05-23T03:00:58.858Z,11.67
2019-05-23T03:03:32.613Z,12.10
2019-05-23T03:06:02.213Z,10.40
2019-05-23T03:08:32.356Z,10.80
2019-05-23T03:11:19.854Z,14.43
2019-05-23T03:13:49.865Z,11.83
2019-05-23T03:16:20.109Z,14.17
2019-05-23T03:18:55.736Z,10.97
2019-05-23T03:21:24.991Z,10.23
2019-05-23T03:23:53.682Z,9.07
2019-05-23T03:27:02.993Z,11.87
2019-05-23T03:29:33.699Z,13.37
2019-05-23T03:32:14.799Z,8.33
2019-05-23T03:34:45.922Z,7.50
2019-05-23T03:37:16.165Z,11.83
2019-05-23T03:39:45.445Z,7.20
2019-05-23T03:42:15.197Z,11.97
2019-05-23T03:44:45.157Z,7.70
2019-05-23T03:47:17.141Z,9.40
2019-05-23T03:49:46.030Z,10.90
2019-05-23T03:52:15.327Z,10.33
2019-05-23T03:54:46.169Z,7.13
2019-05-23T03:57:16.145Z,8.90
2019-05-23T03:59:46.421Z,7.37
2019-05-23T04:02:16.797Z,12.10
2019-05-23T04:04:45.779Z,6.77
2019-05-23T04:07:16.235Z,8.70
2019-05-23T04:09:45.933Z,7.23
2019-05-23T04:12:15.275Z,8.57
2019-05-23T04:14:45.710Z,6.47
2019-05-23T04:17:15.237Z,10.70
2019-05-23T04:19:44.594Z,7.47
2019-05-23T04:22:14.005Z,8.93
2019-05-23T04:24:42.655Z,5.77
2019-05-23T04:27:12.090Z,5.30
2019-05-23T04:29:40.796Z,11.37
2019-05-23T04:32:09.679Z,7.80
2019-05-23T04:34:39.181Z,7.03
2019-05-23T04:37:08.306Z,6.17
2019-05-23T04:39:37.264Z,7.47
2019-05-23T04:42:07.030Z,6.27
2019-05-23T04:44:36.787Z,5.07
2019-05-23T04:47:06.499Z,9.60
2019-05-23T04:49:35.499Z,3.73
2019-05-23T04:52:04.597Z,5.10
2019-05-23T04:54:33.997Z,4.03
2019-05-23T04:57:03.807Z,3.80
2019-05-23T04:59:33.576Z,4.30
2019-05-23T05:02:02.211Z,4.33
2019-05-23T05:04:30.839Z,5.50
2019-05-23T05:06:59.532Z,4.83
2019-05-23T05:09:32.109Z,4.13
2019-05-23T05:12:01.201Z,4.63
2019-05-23T05:14:31.377Z,5.10
2019-05-23T05:17:00.498Z,6.10
2019-05-23T05:19:29.666Z,7.67
2019-05-23T05:21:58.472Z,8.87
2019-05-23T05:24:27.597Z,7.07
2019-05-23T05:26:56.554Z,12.17
2019-05-23T05:29:25.534Z,10.33
2019-05-23T05:31:54.969Z,8.77
2019-05-23T05:34:24.244Z,8.10
2019-05-23T05:36:52.984Z,12.47
2019-05-23T05:39:23.662Z,10.03
2019-05-23T05:41:53.881Z,9.57
2019-05-23T05:44:22.626Z,10.07
2019-05-23T05:46:51.411Z,11.10
2019-05-23T05:49:21.625Z,10.27
2019-05-23T05:51:50.667Z,9.03
2019-05-23T05:54:19.982Z,8.63
2019-05-23T05:56:48.881Z,11.13
2019-05-23T05:59:17.868Z,10.17
2019-05-23T06:01:47.292Z,7.77
2019-05-23T06:04:16.264Z,8.87
2019-05-23T06:06:52.637Z,10.43
2019-05-23T06:09:27.669Z,10.27
2019-05-23T06:11:56.876Z,9.37
2019-05-23T06:14:25.890Z,8.13
2019-05-23T06:16:56.457Z,9.53
2019-05-23T06:19:25.309Z,9.63
2019-05-23T06:21:54.585Z,9.80
2019-05-23T06:24:42.009Z,9.87
2019-05-23T06:26:54.476Z,8.83
2019-05-23T06:29:24.077Z,11.30
2019-05-23T06:31:54.058Z,8.87
2019-05-23T06:34:23.581Z,7.93
2019-05-23T06:36:53.132Z,9.63
2019-05-23T06:39:22.221Z,12.13
2019-05-23T06:41:51.136Z,12.87
2019-05-23T06:44:19.856Z,10.40
2019-05-23T06:46:48.916Z,9.93
2019-05-23T06:49:17.943Z,7.57
2019-05-23T06:51:46.904Z,6.77
2019-05-23T06:54:16.316Z,8.10
2019-05-23T06:56:45.398Z,8.10
2019-05-23T06:59:14.916Z,6.23
2019-05-23T07:01:43.624Z,8.27
2019-05-23T07:04:13.107Z,8.27
2019-05-23T07:06:41.735Z,6.97
2019-05-23T07:09:14.431Z,7.23
2019-05-23T07:11:43.568Z,8.97
2019-05-23T07:14:12.967Z,7.40
2019-05-23T07:16:41.829Z,5.90
2019-05-23T07:19:11.095Z,5.77
2019-05-23T07:21:40.113Z,6.47
2019-05-23T07:24:09.168Z,6.73
2019-05-23T07:26:37.795Z,9.57
2019-05-23T07:29:09.010Z,6.00
2019-05-23T07:31:38.382Z,7.37
2019-05-23T07:34:07.127Z,9.97
2019-05-23T07:36:36.696Z,6.93
2019-05-23T07:39:11.302Z,5.80
2019-05-23T07:41:39.069Z,7.33
2019-05-23T07:44:08.916Z,5.60
2019-05-23T07:46:38.899Z,5.93
2019-05-23T07:49:07.896Z,5.47
2019-05-23T07:51:37.399Z,5.33
2019-05-23T07:54:25.265Z,5.10
2019-05-23T07:56:55.293Z,4.53
2019-05-23T07:59:24.265Z,3.63
2019-05-23T08:02:04.270Z,4.97
2019-05-23T08:04:33.600Z,4.40
2019-05-23T08:07:02.321Z,4.70
2019-05-23T08:09:31.697Z,6.23
2019-05-23T08:12:00.337Z,3.43
2019-05-23T08:14:29.365Z,4.50
2019-05-23T08:16:58.019Z,3.10
2019-05-23T08:19:26.997Z,4.93
2019-05-23T08:21:56.043Z,5.17
2019-05-23T08:24:25.044Z,3.80
2019-05-23T08:26:55.786Z,3.10
2019-05-23T08:29:26.436Z,3.30
2019-05-23T08:31:55.410Z,2.73
2019-05-23T08:34:39.904Z,4.40
2019-05-23T08:36:55.567Z,4.23
2019-05-23T08:39:25.327Z,3.03
2019-05-23T08:41:54.046Z,3.70
2019-05-23T08:44:23.072Z,3.10
2019-05-23T08:46:52.233Z,1.97
2019-05-23T08:49:22.251Z,3.93
2019-05-23T08:51:51.652Z,3.00
2019-05-23T08:54:20.325Z,2.50
2019-05-23T08:56:49.215Z,2.87
2019-05-23T08:59:18.942Z,2.50
2019-05-23T09:01:48.240Z,2.20
2019-05-23T09:04:17.912Z,2.60
2019-05-23T09:06:47.304Z,3.73
2019-05-23T09:09:28.981Z,3.30
2019-05-23T09:11:46.774Z,2.17
2019-05-23T09:14:15.631Z,3.10
2019-05-23T09:16:44.331Z,3.13
2019-05-23T09:19:13.225Z,1.90
2019-05-23T09:21:41.863Z,2.57
2019-05-23T09:24:11.504Z,1.60
2019-05-23T09:26:40.214Z,2.90
2019-05-23T09:29:09.215Z,1.70
2019-05-23T09:31:38.292Z,1.70
2019-05-23T09:34:07.143Z,2.17
2019-05-23T09:36:36.439Z,1.70
2019-05-23T09:39:08.550Z,2.73
2019-05-23T09:41:38.188Z,1.80
2019-05-23T09:44:06.868Z,2.27
2019-05-23T09:46:36.170Z,2.33
2019-05-23T09:49:04.958Z,3.73
2019-05-23T09:51:33.951Z,1.97
2019-05-23T09:54:03.253Z,3.67
2019-05-23T09:56:32.145Z,2.60
2019-05-23T09:59:01.138Z,2.93
2019-05-23T10:01:30.537Z,2.60
2019-05-23T10:03:59.442Z,5.80
2019-05-23T10:06:28.425Z,4.03
2019-05-23T10:08:57.297Z,2.70
2019-05-23T10:11:26.518Z,4.33
2019-05-23T10:13:56.026Z,2.97
2019-05-23T10:16:24.722Z,3.00
2019-05-23T10:18:54.010Z,2.50
2019-05-23T10:21:22.999Z,2.60
2019-05-23T10:23:51.720Z,4.43
2019-05-23T10:26:20.696Z,4.27
2019-05-23T10:28:49.684Z,2.90
2019-05-23T10:31:18.470Z,2.67
2019-05-23T10:33:47.666Z,4.73
2019-05-23T10:36:16.357Z,3.00
2019-05-23T10:38:44.985Z,2.70
2019-05-23T10:41:14.056Z,2.80
2019-05-23T10:43:43.252Z,2.90
2019-05-23T10:46:12.618Z,2.83
2019-05-23T10:48:42.151Z,5.60
2019-05-23T10:51:11.377Z,3.13
2019-05-23T10:53:40.332Z,6.00
2019-05-23T10:56:09.738Z,4.33
2019-05-23T10:58:38.773Z,7.37
2019-05-23T11:01:07.723Z,5.83
2019-05-23T11:03:36.630Z,3.73
2019-05-23T11:06:16.337Z,3.50
2019-05-23T11:08:38.184Z,3.83
2019-05-23T11:11:07.340Z,3.37
2019-05-23T11:13:36.277Z,5.07
2019-05-23T11:16:05.000Z,3.77
2019-05-23T11:18:34.280Z,5.27
2019-05-23T11:21:02.955Z,4.30
2019-05-23T11:23:36.229Z,2.63
2019-05-23T11:26:05.423Z,7.70
2019-05-23T11:28:36.492Z,8.50
2019-05-23T11:31:08.241Z,3.03
2019-05-23T11:33:36.910Z,7.30
2019-05-23T11:36:06.568Z,3.40
2019-05-23T11:38:35.420Z,3.10
2019-05-23T11:41:04.296Z,2.67
2019-05-23T11:43:33.540Z,4.20
2019-05-23T11:46:21.427Z,3.40
2019-05-23T11:48:50.773Z,2.93
2019-05-23T11:51:24.535Z,3.23
2019-05-23T11:54:06.905Z,2.93
2019-05-23T11:56:21.096Z,2.50
2019-05-23T11:58:49.734Z,4.50
2019-05-23T12:01:36.305Z,4.20
2019-05-23T12:04:23.438Z,3.87
2019-05-23T12:07:10.504Z,3.37
2019-05-23T12:09:39.851Z,3.37
2019-05-23T12:12:08.746Z,2.77
2019-05-23T12:14:38.522Z,4.43
2019-05-23T12:17:07.263Z,4.10
2019-05-23T12:19:36.049Z,5.60
2019-05-23T12:22:05.126Z,3.07
2019-05-23T12:24:35.617Z,2.73
2019-05-23T12:27:04.244Z,3.53
2019-05-23T12:29:33.540Z,2.80
2019-05-23T12:32:02.322Z,4.03
2019-05-23T12:34:30.943Z,3.60
2019-05-23T12:37:18.571Z,2.30
2019-05-23T12:39:30.344Z,2.03
2019-05-23T12:41:59.236Z,2.57
2019-05-23T12:44:28.325Z,3.83
2019-05-23T12:46:56.952Z,2.60
2019-05-23T12:49:32.051Z,2.83
2019-05-23T12:52:01.137Z,2.47
2019-05-23T12:54:31.370Z,3.10
2019-05-23T12:57:01.275Z,4.53
2019-05-23T12:59:30.374Z,3.10
2019-05-23T13:02:00.527Z,3.17
2019-05-23T13:04:29.487Z,3.30
2019-05-23T13:06:59.079Z,4.77
2019-05-23T13:09:27.943Z,8.90
2019-05-23T13:11:56.653Z,3.60
2019-05-23T13:14:25.606Z,3.37
2019-05-23T13:16:54.892Z,3.63
2019-05-23T13:19:23.598Z,3.93
2019-05-23T13:21:52.557Z,3.07
2019-05-23T13:24:22.258Z,3.43
2019-05-23T13:26:51.349Z,3.33
2019-05-23T13:29:24.089Z,2.63
2019-05-23T13:31:51.386Z,3.13
2019-05-23T13:34:19.999Z,3.53
2019-05-23T13:36:48.946Z,3.13
2019-05-23T13:39:18.037Z,3.10
2019-05-23T13:41:46.757Z,2.60
2019-05-23T13:44:31.929Z,3.40
2019-05-23T13:46:47.091Z,2.90
2019-05-23T13:49:16.823Z,2.60
2019-05-23T13:51:47.125Z,2.33
2019-05-23T13:54:15.841Z,3.90
2019-05-23T13:56:47.817Z,2.97
2019-05-23T13:59:15.437Z,2.70
2019-05-23T14:01:44.183Z,2.90
2019-05-23T14:04:13.754Z,2.67
2019-05-23T14:06:42.729Z,2.40
2019-05-23T14:09:11.446Z,3.30
2019-05-23T14:11:40.428Z,4.07
2019-05-23T14:14:09.432Z,2.43
2019-05-23T14:16:51.377Z,3.10
2019-05-23T14:19:20.295Z,3.50
2019-05-23T14:21:49.183Z,2.77
2019-05-23T14:24:18.175Z,3.03
2019-05-23T14:26:54.541Z,2.60
2019-05-23T14:29:23.434Z,2.87
2019-05-23T14:32:00.627Z,2.20
2019-05-23T14:34:29.645Z,2.60
2019-05-23T14:37:04.199Z,3.30
2019-05-23T14:39:36.206Z,2.90
2019-05-23T14:42:27.217Z,2.27
2019-05-23T14:44:56.311Z,13.10
2019-05-23T14:47:47.526Z,2.60
2019-05-23T14:50:35.433Z,2.50
2019-05-23T14:53:05.212Z,4.43
2019-05-23T14:55:34.272Z,2.60
2019-05-23T14:58:03.844Z,2.77
2019-05-23T15:00:33.119Z,2.43
2019-05-23T15:03:02.052Z,4.10
2019-05-23T15:05:30.962Z,3.30
2019-05-23T15:07:59.950Z,2.93
2019-05-23T15:10:29.251Z,3.37
2019-05-23T15:12:58.279Z,2.57
2019-05-23T15:15:27.417Z,2.40
2019-05-23T15:17:56.120Z,3.00
2019-05-23T15:20:25.131Z,2.93
2019-05-23T15:22:53.750Z,3.07
2019-05-23T15:25:22.809Z,4.97
2019-05-23T15:27:51.514Z,2.70
2019-05-23T15:30:21.088Z,2.50
2019-05-23T15:32:50.209Z,3.77
2019-05-23T15:35:18.946Z,3.33
2019-05-23T15:37:47.875Z,3.93
2019-05-23T15:40:16.649Z,4.17
2019-05-23T15:42:45.667Z,3.07
2019-05-23T15:45:14.347Z,2.40
2019-05-23T15:47:43.057Z,2.93
2019-05-23T15:50:14.801Z,2.50
2019-05-23T15:53:05.359Z,4.83
2019-05-23T15:55:43.399Z,4.13
2019-05-23T15:58:27.969Z,2.63
2019-05-23T16:01:09.650Z,2.97
2019-05-23T16:03:53.853Z,2.57
2019-05-23T16:06:23.893Z,2.77
2019-05-23T16:08:52.928Z,2.87
2019-05-23T16:11:22.006Z,2.60
2019-05-23T16:13:50.930Z,2.57
2019-05-23T16:16:19.585Z,2.63
2019-05-23T16:18:48.892Z,3.00
2019-05-23T16:21:18.938Z,3.50
2019-05-23T16:23:47.634Z,2.87
2019-05-23T16:26:17.017Z,3.40
2019-05-23T16:28:46.398Z,2.03
2019-05-23T16:31:15.115Z,2.50
2019-05-23T16:33:44.387Z,2.27
2019-05-23T16:36:13.379Z,2.33
2019-05-23T16:38:42.679Z,2.60
2019-05-23T16:41:11.911Z,2.23
2019-05-23T16:43:40.759Z,2.70
2019-05-23T16:46:09.661Z,2.67
2019-05-23T16:48:38.557Z,2.80
2019-05-23T16:51:07.862Z,3.10
2019-05-23T16:53:37.087Z,2.20
2019-05-23T16:56:13.818Z,1.80
2019-05-23T16:58:49.431Z,2.50
2019-05-23T17:01:29.225Z,1.80
2019-05-23T17:04:06.954Z,1.87
2019-05-23T17:06:44.731Z,2.50
2019-05-23T17:09:31.602Z,2.30
2019-05-23T17:12:05.798Z,2.10
2019-05-23T17:14:43.446Z,2.73
2019-05-23T17:17:43.073Z,2.93
2019-05-23T17:20:22.810Z,3.87
2019-05-23T17:22:59.083Z,2.63
2019-05-23T17:25:43.745Z,2.50
2019-05-23T17:28:16.020Z,3.73
2019-05-23T17:30:57.335Z,2.60
2019-05-23T17:33:31.021Z,2.60
2019-05-23T17:35:59.650Z,2.70
2019-05-23T17:38:28.548Z,2.20
2019-05-23T17:40:57.837Z,2.40
2019-05-23T17:43:27.148Z,3.10
2019-05-23T17:45:56.068Z,2.67
2019-05-23T17:48:25.789Z,2.80
2019-05-23T17:50:54.663Z,2.63
2019-05-23T17:53:23.866Z,2.53
2019-05-23T17:55:53.206Z,2.77
2019-05-23T17:58:23.363Z,6.80
2019-05-23T18:00:52.388Z,2.80
2019-05-23T18:03:21.307Z,2.80
2019-05-23T18:05:50.101Z,4.00
2019-05-23T18:08:19.877Z,2.70
2019-05-23T18:10:48.620Z,2.90
2019-05-23T18:13:18.407Z,2.90
2019-05-23T18:15:47.146Z,3.17
2019-05-23T18:18:16.292Z,3.13
2019-05-23T18:20:45.770Z,2.87
2019-05-23T18:23:16.308Z,3.07
2019-05-23T18:25:45.320Z,3.43
2019-05-23T18:28:14.690Z,3.17
2019-05-23T18:30:50.254Z,3.10
2019-05-23T18:33:19.593Z,2.70
2019-05-23T18:35:49.192Z,3.10
2019-05-23T18:38:18.266Z,3.33
2019-05-23T18:41:01.503Z,3.07
2019-05-23T18:43:17.775Z,6.70
2019-05-23T18:45:47.578Z,3.13
2019-05-23T18:48:16.235Z,6.37
2019-05-23T18:50:45.565Z,2.87
2019-05-23T18:53:14.781Z,5.17
2019-05-23T18:55:43.796Z,2.93
2019-05-23T18:58:12.622Z,3.07
2019-05-23T19:01:02.639Z,3.53
2019-05-23T19:03:33.223Z,2.93
2019-05-23T19:06:01.932Z,3.07
2019-05-23T19:08:31.505Z,3.30
2019-05-23T19:11:00.986Z,3.33
2019-05-23T19:13:29.807Z,3.00
2019-05-23T19:15:58.780Z,3.60
2019-05-23T19:18:28.013Z,3.63
2019-05-23T19:20:57.905Z,3.97
2019-05-23T19:23:27.060Z,3.80
2019-05-23T19:25:56.168Z,3.53
2019-05-23T19:28:25.644Z,3.50
2019-05-23T19:30:54.815Z,4.33
2019-05-23T19:33:25.392Z,7.27
2019-05-23T19:35:54.896Z,5.93
2019-05-23T19:38:23.959Z,5.43
2019-05-23T19:40:52.613Z,4.33
2019-05-23T19:43:22.419Z,4.57
2019-05-23T19:45:51.892Z,4.47
2019-05-23T19:48:21.810Z,7.83
2019-05-23T19:50:52.034Z,4.37
2019-05-23T19:53:20.973Z,4.00
2019-05-23T19:55:50.181Z,5.10
2019-05-23T19:58:19.385Z,5.33
2019-05-23T20:00:48.147Z,6.83
2019-05-23T20:03:18.343Z,6.17
2019-05-23T20:05:47.792Z,8.30
2019-05-23T20:08:16.731Z,4.57
2019-05-23T20:10:46.344Z,4.57
2019-05-23T20:13:18.443Z,5.37
2019-05-23T20:15:46.302Z,4.43
2019-05-23T20:18:15.378Z,4.70
2019-05-23T20:20:44.361Z,6.57
2019-05-23T20:23:15.811Z,7.40
2019-05-23T20:25:43.992Z,11.90
2019-05-23T20:28:12.613Z,5.40
2019-05-23T20:30:58.875Z,4.87
2019-05-23T20:33:28.796Z,4.73
2019-05-23T20:35:57.623Z,4.40
2019-05-23T20:38:27.287Z,5.23
2019-05-23T20:40:56.997Z,4.80
2019-05-23T20:43:25.820Z,12.53
2019-05-23T20:45:54.796Z,5.77
2019-05-23T20:48:25.965Z,5.87
2019-05-23T20:50:55.238Z,5.63
2019-05-23T20:53:24.446Z,5.10
2019-05-23T20:55:53.825Z,6.07
2019-05-23T20:58:23.241Z,7.37
2019-05-23T21:00:57.220Z,6.10
2019-05-23T21:03:27.395Z,6.23
2019-05-23T21:05:56.661Z,6.97
2019-05-23T21:08:25.593Z,7.37
2019-05-23T21:10:56.462Z,6.03
2019-05-23T21:13:25.087Z,5.50
2019-05-23T21:15:54.080Z,7.70
2019-05-23T21:18:22.783Z,6.10
2019-05-23T21:20:51.491Z,6.10
2019-05-23T21:23:20.111Z,6.67
2019-05-23T21:25:54.606Z,5.67
2019-05-23T21:28:23.542Z,5.93
2019-05-23T21:30:52.181Z,6.10
2019-05-23T21:33:21.033Z,6.13
2019-05-23T21:35:49.735Z,7.13
2019-05-23T21:38:18.430Z,5.87
2019-05-23T21:40:47.203Z,6.00
2019-05-23T21:43:16.259Z,5.47
2019-05-23T21:45:44.978Z,5.10
2019-05-23T21:48:13.986Z,5.33
2019-05-23T21:50:42.850Z,5.23
2019-05-23T21:53:11.550Z,5.10
2019-05-23T21:55:41.757Z,5.77
2019-05-23T21:58:11.642Z,4.90
2019-05-23T22:01:20.525Z,5.57
2019-05-23T22:03:57.791Z,5.90
2019-05-23T22:06:29.159Z,5.83
2019-05-23T22:08:58.764Z,5.33
2019-05-23T22:11:27.764Z,5.93
2019-05-23T22:13:57.143Z,5.73
2019-05-23T22:16:26.280Z,5.60
2019-05-23T22:18:54.993Z,6.17
2019-05-23T22:21:23.921Z,5.40
2019-05-23T22:23:53.324Z,6.03
2019-05-23T22:26:22.216Z,6.90
2019-05-23T22:28:51.372Z,6.77
2019-05-23T22:31:20.936Z,5.90
2019-05-23T22:33:55.546Z,5.87
2019-05-23T22:36:24.536Z,6.10
2019-05-23T22:38:53.428Z,5.20
2019-05-23T22:41:22.729Z,5.77
2019-05-23T22:43:51.625Z,6.00
2019-05-23T22:46:22.253Z,6.20
2019-05-23T22:48:50.947Z,8.03
2019-05-23T22:51:19.935Z,6.33
2019-05-23T22:53:48.824Z,5.97
2019-05-23T22:56:17.820Z,5.83
2019-05-23T22:58:46.709Z,5.93
2019-05-23T23:01:16.099Z,6.00
2019-05-23T23:03:44.780Z,8.33
2019-05-23T23:06:14.916Z,7.27
2019-05-23T23:08:43.922Z,5.97
2019-05-23T23:11:12.611Z,6.70
2019-05-23T23:13:41.252Z,6.70
2019-05-23T23:16:10.284Z,6.27
2019-05-23T23:18:39.889Z,5.93
2019-05-23T23:21:08.984Z,6.50
2019-05-23T23:23:37.982Z,6.03
2019-05-23T23:26:06.619Z,5.33
2019-05-23T23:28:35.914Z,6.73
2019-05-23T23:31:04.578Z,6.43
2019-05-23T23:33:33.542Z,6.17
2019-05-23T23:36:03.154Z,6.57
2019-05-23T23:38:31.801Z,6.60
2019-05-23T23:41:01.351Z,6.83
2019-05-23T23:43:30.376Z,6.60
2019-05-23T23:46:16.849Z,6.50
2019-05-23T23:49:03.689Z,6.00
2019-05-23T23:51:50.470Z,7.27
2019-05-23T23:54:37.793Z,8.83
2019-05-23T23:57:24.603Z,6.73
2019-05-23T23:59:52.781Z,7.27
